createdAt,value
2022-11-04T00:01:05.054Z,9.38
2022-11-04T00:03:34.330Z,8.68
2022-11-04T00:06:05.225Z,10.65
2022-11-04T00:08:34.328Z,10.23
2022-11-04T00:11:21.244Z,8.63
2022-11-04T00:13:50.392Z,8.93
2022-11-04T00:16:37.295Z,12.93
2022-11-04T00:19:06.270Z,9.80
2022-11-04T00:21:54.415Z,7.97
2022-11-04T00:24:40.966Z,9.98
2022-11-04T00:27:28.009Z,10.73
2022-11-04T00:29:57.248Z,10.20
2022-11-04T00:32:44.124Z,8.45
2022-11-04T00:35:15.277Z,10.45
2022-11-04T00:37:46.132Z,9.35
2022-11-04T00:40:16.257Z,11.60
2022-11-04T00:42:46.684Z,8.15
2022-11-04T00:45:16.665Z,11.15
2022-11-04T00:47:46.111Z,15.27
2022-11-04T00:50:15.393Z,7.82
2022-11-04T00:52:46.419Z,10.23
2022-11-04T00:55:15.837Z,6.95
2022-11-04T00:57:44.852Z,11.35
2022-11-04T01:00:16.767Z,9.30
2022-11-04T01:02:45.993Z,11.25
2022-11-04T01:05:15.119Z,9.10
2022-11-04T01:07:45.698Z,8.50
2022-11-04T01:10:14.777Z,12.13
2022-11-04T01:12:43.900Z,13.82
2022-11-04T01:15:12.937Z,8.75
2022-11-04T01:17:42.059Z,8.32
2022-11-04T01:20:11.634Z,13.18
2022-11-04T01:22:41.961Z,14.70
2022-11-04T01:25:14.858Z,10.32
2022-11-04T01:27:49.324Z,9.05
2022-11-04T01:30:20.270Z,11.50
2022-11-04T01:32:50.488Z,8.55
2022-11-04T01:35:19.918Z,12.35
2022-11-04T01:37:49.077Z,9.68
2022-11-04T01:40:19.987Z,11.32
2022-11-04T01:42:49.395Z,8.25
2022-11-04T01:45:21.102Z,10.90
2022-11-04T01:47:52.430Z,5.35
2022-11-04T01:50:24.523Z,9.43
2022-11-04T01:55:25.464Z,5.15
2022-11-04T02:00:23.818Z,7.45
2022-11-04T02:02:56.611Z,6.78
2022-11-04T02:05:25.858Z,8.10
2022-11-04T02:07:57.890Z,7.88
2022-11-04T02:12:56.635Z,6.30
2022-11-04T02:15:29.456Z,6.07
2022-11-04T02:18:17.521Z,7.47
2022-11-04T02:20:52.761Z,5.20
2022-11-04T02:23:43.848Z,6.75
2022-11-04T02:26:30.689Z,4.03
2022-11-04T02:29:10.944Z,4.20
2022-11-04T02:31:41.958Z,4.18
2022-11-04T02:34:15.990Z,6.00
2022-11-04T02:36:50.879Z,4.43
2022-11-04T02:39:24.227Z,5.22
2022-11-04T02:41:57.333Z,6.60
2022-11-04T02:44:32.364Z,6.80
2022-11-04T02:47:03.392Z,5.47
2022-11-04T02:49:36.765Z,9.35
2022-11-04T02:52:08.057Z,9.25
2022-11-04T02:54:39.713Z,13.10
2022-11-04T02:57:10.893Z,13.15
2022-11-04T02:59:43.845Z,14.03
2022-11-04T03:02:15.882Z,16.70
2022-11-04T03:04:48.252Z,18.83
2022-11-04T03:09:50.496Z,19.05
2022-11-04T03:12:21.758Z,19.67
2022-11-04T03:14:54.557Z,19.10
2022-11-04T03:17:25.805Z,14.65
2022-11-04T03:19:56.337Z,18.35
2022-11-04T03:22:27.620Z,20.10
2022-11-04T03:24:57.117Z,16.42
2022-11-04T03:27:31.484Z,16.65
2022-11-04T03:37:43.485Z,21.90
2022-11-04T03:40:14.580Z,16.05
2022-11-04T03:42:46.997Z,15.77
2022-11-04T03:45:18.370Z,16.17
2022-11-04T03:47:47.841Z,15.73
2022-11-04T03:50:27.795Z,19.63
2022-11-04T03:52:57.598Z,17.25
2022-11-04T03:55:32.898Z,13.68
2022-11-04T03:58:08.138Z,14.00
2022-11-04T04:00:39.317Z,12.88
2022-11-04T04:03:10.092Z,14.60
2022-11-04T04:05:41.395Z,14.90
2022-11-04T04:08:14.245Z,11.18
2022-11-04T04:10:50.079Z,15.07
2022-11-04T04:13:21.800Z,15.90
2022-11-04T04:15:55.760Z,10.57
2022-11-04T04:18:28.457Z,12.73
2022-11-04T04:20:58.603Z,9.88
2022-11-04T04:23:47.007Z,7.32
2022-11-04T04:26:35.945Z,13.48
2022-11-04T04:29:06.714Z,11.02
2022-11-04T04:31:52.827Z,9.95
2022-11-04T04:34:23.814Z,21.05
2022-11-04T04:36:55.144Z,16.40
2022-11-04T04:39:43.255Z,10.27
2022-11-04T04:42:31.171Z,10.27
2022-11-04T04:45:04.462Z,10.45
2022-11-04T04:47:37.076Z,10.35
2022-11-04T04:50:07.445Z,12.38
2022-11-04T04:52:38.827Z,13.80
2022-11-04T04:55:08.357Z,6.97
2022-11-04T04:57:39.152Z,8.68
2022-11-04T05:00:10.166Z,9.90
2022-11-04T05:02:42.602Z,7.90
2022-11-04T05:05:13.346Z,9.38
2022-11-04T05:07:42.561Z,7.07
2022-11-04T05:10:12.737Z,10.68
2022-11-04T05:13:00.592Z,10.23
2022-11-04T05:15:30.307Z,13.23
2022-11-04T05:18:00.756Z,9.65
2022-11-04T05:20:30.526Z,11.93
2022-11-04T05:23:02.357Z,14.23
2022-11-04T05:25:31.953Z,11.73
2022-11-04T05:28:02.963Z,14.77
2022-11-04T05:30:31.886Z,12.25
2022-11-04T05:33:04.671Z,9.13
2022-11-04T05:35:35.377Z,12.68
2022-11-04T05:38:05.016Z,14.20
2022-11-04T05:40:35.337Z,16.50
2022-11-04T05:43:06.862Z,18.48
2022-11-04T05:45:36.721Z,21.27
2022-11-04T05:48:07.161Z,18.02
2022-11-04T05:50:36.879Z,15.50
2022-11-04T05:53:08.086Z,13.93
2022-11-04T05:55:37.882Z,19.33
2022-11-04T05:58:08.545Z,26.30
2022-11-04T06:00:37.914Z,26.15
2022-11-04T06:03:10.697Z,15.63
2022-11-04T06:05:42.799Z,17.13
2022-11-04T06:08:12.152Z,13.00
2022-11-04T06:10:41.778Z,16.38
2022-11-04T06:13:12.296Z,20.58
2022-11-04T06:15:41.293Z,22.70
2022-11-04T06:18:10.721Z,17.30
2022-11-04T06:20:40.112Z,13.52
2022-11-04T06:23:09.301Z,16.98
2022-11-04T06:25:38.786Z,18.52
2022-11-04T06:28:08.727Z,13.32
2022-11-04T06:30:39.679Z,18.58
2022-11-04T06:33:09.098Z,18.13
2022-11-04T06:35:38.427Z,16.17
2022-11-04T06:38:09.081Z,13.23
2022-11-04T06:40:39.726Z,12.13
2022-11-04T06:43:09.319Z,18.55
2022-11-04T06:45:40.391Z,12.10
2022-11-04T06:48:09.638Z,11.57
2022-11-04T06:50:39.191Z,13.15
2022-11-04T06:53:08.668Z,15.65
2022-11-04T06:55:40.431Z,20.27
2022-11-04T06:58:12.405Z,14.10
2022-11-04T07:00:43.018Z,12.65
2022-11-04T07:03:12.368Z,11.75
2022-11-04T07:05:41.684Z,15.40
2022-11-04T07:08:11.105Z,15.82
2022-11-04T07:10:40.370Z,14.98
2022-11-04T07:13:09.537Z,14.40
2022-11-04T07:15:40.335Z,13.30
2022-11-04T07:18:11.726Z,16.67
2022-11-04T07:20:41.334Z,18.65
2022-11-04T07:23:11.030Z,18.88
2022-11-04T07:25:40.254Z,19.05
2022-11-04T07:28:09.799Z,14.95
2022-11-04T07:30:39.289Z,13.25
2022-11-04T07:33:08.869Z,14.82
2022-11-04T07:35:39.551Z,17.95
2022-11-04T07:38:09.087Z,18.13
2022-11-04T07:40:39.952Z,13.18
2022-11-04T07:43:09.272Z,15.90
2022-11-04T07:45:40.081Z,14.35
2022-11-04T07:48:11.073Z,17.35
2022-11-04T07:50:42.448Z,20.00
2022-11-04T07:53:12.423Z,17.37
2022-11-04T07:55:44.372Z,20.90
2022-11-04T07:58:17.013Z,16.63
2022-11-04T08:00:47.704Z,22.33
2022-11-04T08:03:17.413Z,15.95
2022-11-04T08:05:48.369Z,20.10
2022-11-04T08:08:19.078Z,15.57
2022-11-04T08:10:53.884Z,15.18
2022-11-04T08:13:23.555Z,15.45
2022-11-04T08:16:15.824Z,14.40
2022-11-04T08:21:35.402Z,14.15
2022-11-04T08:24:09.118Z,24.50
2022-11-04T08:26:42.968Z,16.58
2022-11-04T08:29:12.966Z,16.65
2022-11-04T08:31:42.595Z,17.85
2022-11-04T08:34:12.472Z,13.75
2022-11-04T08:36:43.783Z,11.93
2022-11-04T08:39:14.266Z,16.40
2022-11-04T08:41:45.550Z,13.90
2022-11-04T08:44:18.546Z,16.20
2022-11-04T08:46:49.516Z,15.68
2022-11-04T08:49:21.580Z,13.70
2022-11-04T08:52:07.888Z,12.02
2022-11-04T08:54:41.458Z,13.27
2022-11-04T08:57:16.317Z,9.93
2022-11-04T08:59:51.434Z,14.13
2022-11-04T09:02:30.925Z,13.23
2022-11-04T09:05:08.389Z,13.30
2022-11-04T09:07:40.600Z,15.05
2022-11-04T09:10:12.112Z,11.32
2022-11-04T09:12:47.644Z,9.30
2022-11-04T09:15:18.299Z,11.57
2022-11-04T09:17:47.554Z,11.77
2022-11-04T09:20:16.901Z,23.00
2022-11-04T09:22:50.375Z,9.05
2022-11-04T09:25:19.879Z,8.32
2022-11-04T09:27:49.092Z,7.60
2022-11-04T09:30:18.282Z,8.10
2022-11-04T09:32:52.371Z,14.45
2022-11-04T09:35:22.002Z,9.23
2022-11-04T09:37:52.883Z,8.02
2022-11-04T09:40:23.450Z,8.02
2022-11-04T09:43:02.772Z,9.45
2022-11-04T09:45:33.823Z,10.80
2022-11-04T09:48:09.323Z,8.00
2022-11-04T09:50:43.386Z,4.10
2022-11-04T09:53:17.785Z,6.65
2022-11-04T09:55:51.721Z,8.10
2022-11-04T09:58:21.296Z,6.57
2022-11-04T10:00:53.319Z,6.38
2022-11-04T10:05:59.426Z,6.60
2022-11-04T10:08:38.253Z,5.55
2022-11-04T10:11:12.135Z,7.60
2022-11-04T10:13:51.160Z,7.03
2022-11-04T10:16:26.366Z,7.20
2022-11-04T10:19:11.037Z,7.18
2022-11-04T10:21:45.503Z,7.38
2022-11-04T10:24:21.568Z,7.18
2022-11-04T10:27:00.607Z,7.13
2022-11-04T10:29:33.968Z,5.57
2022-11-04T10:32:04.854Z,5.75
2022-11-04T10:34:38.877Z,10.50
2022-11-04T10:37:10.998Z,2.55
2022-11-04T10:39:46.833Z,9.20
2022-11-04T10:42:25.155Z,9.50
2022-11-04T10:44:56.720Z,10.27
2022-11-04T10:47:33.351Z,5.03
2022-11-04T10:50:33.148Z,9.25
2022-11-04T10:53:11.884Z,7.75
2022-11-04T10:55:47.387Z,8.85
2022-11-04T10:58:23.976Z,7.82
2022-11-04T11:00:58.102Z,7.78
2022-11-04T11:03:32.344Z,3.53
2022-11-04T11:06:23.079Z,3.28
2022-11-04T11:08:55.801Z,2.80
2022-11-04T11:11:54.354Z,6.03
2022-11-04T11:14:41.787Z,7.60
2022-11-04T11:17:21.921Z,5.18
2022-11-04T11:19:52.744Z,8.23
2022-11-04T11:22:33.099Z,4.05
2022-11-04T11:25:21.460Z,5.35
2022-11-04T11:27:51.923Z,7.88
2022-11-04T11:30:23.210Z,5.63
2022-11-04T11:32:55.940Z,6.43
2022-11-04T11:35:27.326Z,8.48
2022-11-04T11:37:57.802Z,8.07
2022-11-04T11:40:32.177Z,4.18
2022-11-04T11:43:01.918Z,8.70
2022-11-04T11:45:34.272Z,4.13
2022-11-04T11:48:26.867Z,6.60
2022-11-04T11:50:58.815Z,4.90
2022-11-04T11:56:11.748Z,4.03
2022-11-04T12:01:37.941Z,5.90
2022-11-04T12:09:54.281Z,6.75
2022-11-04T12:12:30.437Z,9.60
2022-11-04T12:15:12.810Z,7.10
2022-11-04T12:20:43.985Z,8.65
2022-11-04T12:23:26.273Z,4.30
2022-11-04T12:26:06.583Z,5.90
2022-11-04T12:28:55.390Z,7.53
2022-11-04T12:31:40.599Z,10.37
2022-11-04T12:34:15.290Z,7.85
2022-11-04T12:37:04.196Z,6.57
2022-11-04T12:39:44.081Z,8.63
2022-11-04T12:42:29.704Z,5.43
2022-11-04T12:45:11.832Z,5.78
2022-11-04T12:47:48.469Z,7.55
2022-11-04T12:50:39.319Z,6.72
2022-11-04T12:53:22.526Z,5.40
2022-11-04T12:55:56.327Z,4.47
2022-11-04T12:58:35.450Z,5.63
2022-11-04T13:01:19.864Z,4.65
2022-11-04T13:03:58.515Z,5.57
2022-11-04T13:06:32.215Z,3.90
2022-11-04T13:09:22.273Z,2.75
2022-11-04T13:11:59.681Z,6.50
2022-11-04T13:14:32.166Z,3.63
2022-11-04T13:17:07.082Z,4.63
2022-11-04T13:19:43.064Z,3.17
2022-11-04T13:22:17.921Z,5.90
2022-11-04T13:24:58.669Z,6.13
2022-11-04T13:27:35.749Z,1.92
2022-11-04T13:30:10.592Z,3.95
2022-11-04T13:32:49.682Z,3.25
2022-11-04T13:35:26.553Z,5.30
2022-11-04T13:38:12.949Z,5.95
2022-11-04T13:40:49.630Z,7.20
2022-11-04T13:43:43.632Z,5.82
2022-11-04T13:46:21.810Z,5.15
2022-11-04T13:48:56.130Z,2.95
2022-11-04T13:51:26.008Z,3.75
2022-11-04T13:53:58.428Z,2.17
2022-11-04T13:56:38.792Z,2.67
2022-11-04T13:59:24.061Z,2.97
2022-11-04T14:02:24.458Z,3.35
2022-11-04T14:04:56.412Z,1.65
2022-11-04T14:07:55.585Z,3.72
2022-11-04T14:10:45.456Z,1.67
2022-11-04T14:13:35.203Z,3.15
2022-11-04T14:16:07.394Z,2.13
2022-11-04T14:21:08.011Z,3.63
2022-11-04T14:23:39.766Z,1.38
2022-11-04T14:26:14.905Z,3.40
2022-11-04T14:28:48.957Z,2.55
2022-11-04T14:31:38.342Z,1.05
2022-11-04T14:34:11.829Z,1.60
2022-11-04T14:36:45.392Z,2.33
2022-11-04T14:39:39.935Z,2.25
2022-11-04T14:42:17.406Z,1.30
2022-11-04T14:44:50.441Z,1.60
2022-11-04T14:47:36.610Z,2.75
2022-11-04T14:50:19.389Z,1.67
2022-11-04T14:52:51.855Z,2.40
2022-11-04T14:55:24.825Z,1.83
2022-11-04T14:57:57.668Z,4.35
2022-11-04T15:00:32.603Z,2.88
2022-11-04T15:03:10.163Z,1.00
2022-11-04T15:05:41.804Z,1.17
2022-11-04T15:08:29.061Z,4.28
2022-11-04T15:11:10.231Z,2.28
2022-11-04T15:14:23.817Z,1.52
2022-11-04T15:17:03.973Z,2.70
2022-11-04T15:19:48.941Z,2.25
2022-11-04T15:22:20.297Z,2.60
2022-11-04T15:24:52.530Z,2.50
2022-11-04T15:27:28.596Z,2.45
2022-11-04T15:30:08.230Z,2.40
2022-11-04T15:32:39.861Z,3.80
2022-11-04T15:35:18.810Z,3.72
2022-11-04T15:37:54.337Z,2.88
2022-11-04T15:40:24.763Z,2.30
2022-11-04T15:42:57.392Z,3.90
2022-11-04T15:45:34.025Z,1.75
2022-11-04T15:48:23.997Z,3.63
2022-11-04T15:50:55.159Z,2.47
2022-11-04T15:53:28.700Z,3.90
2022-11-04T15:55:58.740Z,2.05
2022-11-04T15:58:29.079Z,4.63
2022-11-04T16:01:12.596Z,4.03
2022-11-04T16:03:44.152Z,2.85
2022-11-04T16:06:15.619Z,3.15
2022-11-04T16:09:01.452Z,2.40
2022-11-04T16:11:32.517Z,3.75
2022-11-04T16:14:17.594Z,4.30
2022-11-04T16:16:51.716Z,1.95
2022-11-04T16:19:24.882Z,1.60
2022-11-04T16:22:01.557Z,2.88
2022-11-04T16:25:00.590Z,3.50
2022-11-04T16:27:35.346Z,3.72
2022-11-04T16:30:11.701Z,3.42
2022-11-04T16:32:48.276Z,2.58
2022-11-04T16:35:32.089Z,3.75
2022-11-04T16:38:04.753Z,3.88
2022-11-04T16:40:39.126Z,4.45
2022-11-04T16:43:12.867Z,5.63
2022-11-04T16:45:42.682Z,5.07
2022-11-04T16:48:15.240Z,5.13
2022-11-04T16:53:14.375Z,5.93
2022-11-04T16:56:00.529Z,6.78
2022-11-04T16:58:31.727Z,5.35
2022-11-04T17:01:05.490Z,5.70
2022-11-04T17:03:35.026Z,3.67
2022-11-04T17:06:05.125Z,6.30
2022-11-04T17:08:36.020Z,4.00
2022-11-04T17:11:07.177Z,5.53
2022-11-04T17:13:37.726Z,4.00
2022-11-04T17:16:13.889Z,3.60
2022-11-04T17:18:46.834Z,3.75
2022-11-04T17:21:20.481Z,3.47
2022-11-04T17:23:52.957Z,5.90
2022-11-04T17:26:33.519Z,7.50
2022-11-04T17:29:17.252Z,5.78
2022-11-04T17:31:49.385Z,3.53
2022-11-04T17:37:06.346Z,4.43
2022-11-04T17:39:59.044Z,11.15
2022-11-04T17:42:50.902Z,4.20
2022-11-04T17:45:38.549Z,7.93
2022-11-04T17:48:32.693Z,6.45
2022-11-04T17:51:10.248Z,7.38
2022-11-04T17:53:47.749Z,8.45
2022-11-04T17:56:18.599Z,7.20
2022-11-04T18:01:49.312Z,3.65
2022-11-04T18:04:21.395Z,7.80
2022-11-04T18:06:57.188Z,6.30
2022-11-04T18:09:57.517Z,7.40
2022-11-04T18:12:43.863Z,6.63
2022-11-04T18:15:52.086Z,10.38
2022-11-04T18:18:43.913Z,7.82
2022-11-04T18:21:22.704Z,7.28
2022-11-04T18:23:58.902Z,7.15
2022-11-04T18:26:35.163Z,6.72
2022-11-04T18:29:47.521Z,11.98
2022-11-04T18:38:33.241Z,8.18
2022-11-04T18:41:48.705Z,9.07
2022-11-04T18:51:26.607Z,11.38
2022-11-04T18:53:57.273Z,8.98
2022-11-04T18:56:27.180Z,6.93
2022-11-04T18:58:57.280Z,11.23
2022-11-04T19:01:27.977Z,9.75
2022-11-04T19:03:59.768Z,9.82
2022-11-04T19:06:32.641Z,9.23
2022-11-04T19:09:13.487Z,7.28
2022-11-04T19:11:48.855Z,8.60
2022-11-04T19:14:22.490Z,9.98
2022-11-04T19:16:51.976Z,6.60
2022-11-04T19:19:24.859Z,6.70
2022-11-04T19:21:56.200Z,8.43
2022-11-04T19:24:26.613Z,6.82
2022-11-04T19:26:56.477Z,8.07
2022-11-04T19:29:26.468Z,8.25
2022-11-04T19:31:55.973Z,8.32
2022-11-04T19:34:27.750Z,9.60
2022-11-04T19:36:59.080Z,11.73
2022-11-04T19:39:28.924Z,9.77
2022-11-04T19:42:16.785Z,10.13
2022-11-04T19:44:47.037Z,22.63
2022-11-04T19:47:17.450Z,24.38
2022-11-04T19:49:46.928Z,24.95
2022-11-04T19:52:18.124Z,30.20
2022-11-04T19:54:47.550Z,26.00
2022-11-04T19:57:33.641Z,32.03
2022-11-04T20:00:24.249Z,29.20
2022-11-04T20:03:50.514Z,33.28
2022-11-04T20:07:14.542Z,31.15
2022-11-04T20:09:53.150Z,27.48
2022-11-04T20:12:42.801Z,32.65
2022-11-04T20:15:15.310Z,26.42
2022-11-04T20:17:49.430Z,27.85
2022-11-04T20:20:35.446Z,25.95
2022-11-04T20:23:06.968Z,26.63
2022-11-04T20:26:17.717Z,29.65
2022-11-04T20:29:05.159Z,25.83
2022-11-04T20:31:45.790Z,26.35
2022-11-04T20:34:55.885Z,28.13
2022-11-04T20:38:06.508Z,34.80
2022-11-04T20:45:24.319Z,29.10
2022-11-04T20:48:32.890Z,30.50
2022-11-04T20:51:36.506Z,29.27
2022-11-04T21:06:28.896Z,29.10
2022-11-04T21:09:24.531Z,29.85
2022-11-04T21:12:08.873Z,27.85
2022-11-04T21:14:57.739Z,30.88
2022-11-04T21:17:40.223Z,29.17
2022-11-04T21:26:24.285Z,33.13
2022-11-04T21:29:21.097Z,32.88
2022-11-04T21:31:59.023Z,34.25
2022-11-04T21:34:30.115Z,37.40
2022-11-04T21:37:00.630Z,37.40
2022-11-04T21:39:31.783Z,34.30
2022-11-04T21:42:01.511Z,40.05
2022-11-04T21:44:32.620Z,31.92
2022-11-04T21:47:03.188Z,36.83
2022-11-04T21:49:35.778Z,29.40
2022-11-04T21:52:05.745Z,34.30
2022-11-04T21:54:34.834Z,29.55
2022-11-04T21:57:04.290Z,33.85
2022-11-04T21:59:34.799Z,30.35
2022-11-04T22:02:04.087Z,29.88
2022-11-04T22:04:33.535Z,28.00
2022-11-04T22:07:02.586Z,26.17
2022-11-04T22:09:31.738Z,25.60
2022-11-04T22:12:04.314Z,28.52
2022-11-04T22:14:34.683Z,27.52
2022-11-04T22:17:03.687Z,26.08
2022-11-04T22:19:33.263Z,24.42
2022-11-04T22:22:02.696Z,26.77
2022-11-04T22:24:31.828Z,26.08
2022-11-04T22:27:00.938Z,23.13
2022-11-04T22:29:31.495Z,29.83
2022-11-04T22:32:02.206Z,25.00
2022-11-04T22:34:31.729Z,21.88
2022-11-04T22:37:01.334Z,23.33
2022-11-04T22:39:30.987Z,24.23
2022-11-04T22:42:00.093Z,21.77
2022-11-04T22:44:29.076Z,18.95
2022-11-04T22:46:58.229Z,20.27
2022-11-04T22:49:28.774Z,16.52
2022-11-04T22:51:57.735Z,22.60
2022-11-04T22:54:26.869Z,16.20
2022-11-04T22:56:55.990Z,19.73
2022-11-04T22:59:25.175Z,22.77
2022-11-04T23:01:54.298Z,23.08
2022-11-04T23:04:23.533Z,16.05
2022-11-04T23:06:53.986Z,15.55
2022-11-04T23:09:23.671Z,19.20
2022-11-04T23:12:10.194Z,15.85
2022-11-04T23:14:56.712Z,20.00
2022-11-04T23:17:43.601Z,18.33
2022-11-04T23:20:14.269Z,19.60
2022-11-04T23:23:02.680Z,17.65
2022-11-04T23:25:32.633Z,18.77
2022-11-04T23:28:19.397Z,22.20
2022-11-04T23:30:49.061Z,19.00
2022-11-04T23:33:18.263Z,21.88
2022-11-04T23:36:11.055Z,22.48
2022-11-04T23:38:44.192Z,14.70
2022-11-04T23:41:44.454Z,18.92
2022-11-04T23:44:34.227Z,16.23
2022-11-04T23:47:20.802Z,19.40
2022-11-04T23:50:07.294Z,20.42
2022-11-04T23:52:56.099Z,16.85
2022-11-04T23:55:47.341Z,16.67
2022-11-04T23:58:34.450Z,15.57
